createdAt,value
2022-12-31T00:02:46.643Z,36.28
2022-12-31T00:05:48.790Z,35.25
2022-12-31T00:08:56.872Z,34.83
2022-12-31T00:11:59.068Z,36.95
2022-12-31T00:15:01.288Z,37.17
2022-12-31T00:18:03.738Z,37.23
2022-12-31T00:21:07.252Z,36.50
2022-12-31T00:24:11.107Z,37.90
2022-12-31T00:27:13.396Z,36.60
2022-12-31T00:30:16.136Z,37.03
2022-12-31T00:33:18.382Z,34.73
2022-12-31T00:36:22.019Z,36.17
2022-12-31T00:39:24.620Z,33.08
2022-12-31T00:42:26.781Z,32.55
2022-12-31T00:45:29.005Z,32.03
2022-12-31T00:48:31.843Z,32.90
2022-12-31T00:51:33.981Z,33.35
2022-12-31T00:54:36.124Z,33.35
2022-12-31T00:57:38.323Z,33.30
2022-12-31T01:00:41.828Z,33.00
2022-12-31T01:03:44.051Z,31.77
2022-12-31T01:06:46.536Z,33.43
2022-12-31T01:09:48.693Z,33.30
2022-12-31T01:12:50.876Z,32.13
2022-12-31T01:15:53.091Z,32.22
2022-12-31T01:18:55.297Z,31.37
2022-12-31T01:21:57.648Z,30.87
2022-12-31T01:24:59.877Z,31.58
2022-12-31T01:28:02.380Z,30.17
2022-12-31T01:31:05.401Z,31.05
2022-12-31T01:34:08.097Z,30.67
2022-12-31T01:37:10.271Z,30.83
2022-12-31T01:40:12.513Z,30.02
2022-12-31T01:43:21.013Z,29.77
2022-12-31T01:46:29.078Z,29.83
2022-12-31T01:49:40.427Z,29.85
2022-12-31T01:52:45.225Z,27.23
2022-12-31T01:55:52.199Z,29.08
2022-12-31T01:58:56.048Z,27.03
2022-12-31T02:01:58.951Z,26.02
2022-12-31T02:05:02.633Z,26.50
2022-12-31T02:08:06.175Z,26.48
2022-12-31T02:11:20.718Z,26.40
2022-12-31T02:14:43.068Z,26.52
2022-12-31T02:17:52.141Z,24.48
2022-12-31T02:21:04.216Z,27.23
2022-12-31T02:24:15.542Z,25.92
2022-12-31T02:27:36.568Z,25.35
2022-12-31T02:30:40.268Z,26.83
2022-12-31T02:33:49.592Z,27.40
2022-12-31T02:36:52.584Z,25.30
2022-12-31T02:39:55.216Z,25.83
2022-12-31T02:42:57.406Z,26.85
2022-12-31T02:46:18.432Z,26.13
2022-12-31T02:49:23.817Z,24.77
2022-12-31T02:52:40.868Z,25.40
2022-12-31T02:55:48.956Z,25.20
2022-12-31T02:59:19.005Z,24.70
2022-12-31T03:02:23.073Z,24.83
2022-12-31T03:05:26.967Z,24.48
2022-12-31T03:08:29.101Z,25.10
2022-12-31T03:11:49.918Z,26.15
2022-12-31T03:14:52.238Z,25.80
2022-12-31T03:18:07.788Z,26.40
2022-12-31T03:21:30.863Z,24.90
2022-12-31T03:24:51.603Z,25.23
2022-12-31T03:27:54.092Z,24.40
2022-12-31T03:30:57.652Z,27.15
2022-12-31T03:33:59.745Z,26.73
2022-12-31T03:37:01.866Z,26.38
2022-12-31T03:40:04.382Z,26.67
2022-12-31T03:43:06.866Z,26.10
2022-12-31T03:46:10.642Z,26.85
2022-12-31T03:49:12.828Z,27.27
2022-12-31T03:52:15.097Z,25.93
2022-12-31T03:55:17.913Z,25.73
2022-12-31T03:58:20.211Z,28.08
2022-12-31T04:01:24.496Z,25.50
2022-12-31T04:04:26.964Z,25.33
2022-12-31T04:07:29.014Z,25.55
2022-12-31T04:10:31.547Z,27.38
2022-12-31T04:13:34.348Z,24.92
2022-12-31T04:16:36.628Z,24.90
2022-12-31T04:19:38.950Z,27.60
2022-12-31T04:22:41.109Z,29.02
2022-12-31T04:25:43.347Z,26.83
2022-12-31T04:28:46.450Z,25.70
2022-12-31T04:31:48.674Z,25.23
2022-12-31T04:34:50.850Z,25.58
2022-12-31T04:37:53.105Z,26.58
2022-12-31T04:41:14.211Z,25.50
2022-12-31T04:44:16.726Z,24.10
2022-12-31T04:47:23.634Z,23.02
2022-12-31T04:50:26.441Z,24.73
2022-12-31T04:53:29.471Z,23.92
2022-12-31T04:56:32.283Z,24.73
2022-12-31T04:59:34.644Z,22.85
2022-12-31T05:02:37.029Z,21.85
2022-12-31T05:05:39.844Z,23.38
2022-12-31T05:08:42.307Z,25.77
2022-12-31T05:11:44.563Z,28.90
2022-12-31T05:14:46.772Z,27.05
2022-12-31T05:17:48.929Z,25.52
2022-12-31T05:20:51.183Z,25.80
2022-12-31T05:23:53.383Z,25.13
2022-12-31T05:26:55.525Z,24.27
2022-12-31T05:29:57.642Z,23.63
2022-12-31T05:32:59.829Z,23.13
2022-12-31T05:36:02.174Z,23.67
2022-12-31T05:39:04.390Z,21.65
2022-12-31T05:42:06.573Z,22.15
2022-12-31T05:45:09.478Z,23.73
2022-12-31T05:48:11.792Z,24.77
2022-12-31T05:51:14.087Z,23.42
2022-12-31T05:54:16.258Z,23.48
2022-12-31T05:57:18.425Z,24.20
2022-12-31T06:00:20.621Z,24.40
2022-12-31T06:03:22.819Z,25.77
2022-12-31T06:06:25.238Z,25.73
2022-12-31T06:09:27.427Z,23.70
2022-12-31T06:12:29.580Z,24.67
2022-12-31T06:15:32.233Z,24.20
2022-12-31T06:18:34.911Z,24.13
2022-12-31T06:21:38.965Z,22.73
2022-12-31T06:24:42.303Z,22.40
2022-12-31T06:27:44.393Z,22.52
2022-12-31T06:30:46.668Z,23.07
2022-12-31T06:33:48.845Z,22.77
2022-12-31T06:36:51.113Z,22.67
2022-12-31T06:39:53.216Z,23.77
2022-12-31T06:42:59.878Z,25.05
2022-12-31T06:46:03.655Z,26.23
2022-12-31T06:49:05.823Z,26.40
2022-12-31T06:52:08.392Z,24.88
2022-12-31T06:55:10.745Z,26.45
2022-12-31T06:58:13.704Z,27.30
2022-12-31T07:01:30.880Z,26.25
2022-12-31T07:04:33.141Z,26.13
2022-12-31T07:07:43.494Z,26.80
2022-12-31T07:10:55.729Z,30.63
2022-12-31T07:14:16.910Z,30.40
2022-12-31T07:17:25.236Z,30.85
2022-12-31T07:20:27.562Z,32.38
2022-12-31T07:23:29.769Z,37.47
2022-12-31T07:26:41.068Z,33.03
2022-12-31T07:29:43.215Z,28.33
2022-12-31T07:33:14.540Z,27.42
2022-12-31T07:36:24.029Z,24.67
2022-12-31T07:39:35.609Z,25.02
2022-12-31T07:42:56.565Z,22.67
2022-12-31T07:46:13.578Z,22.88
2022-12-31T07:49:16.043Z,23.93
2022-12-31T07:52:18.981Z,22.88
2022-12-31T07:55:22.296Z,22.88
2022-12-31T07:58:36.941Z,22.58
2022-12-31T08:01:48.417Z,22.90
2022-12-31T08:04:52.731Z,24.80
2022-12-31T08:08:11.228Z,31.55
2022-12-31T08:11:30.628Z,28.40
2022-12-31T08:14:36.097Z,38.30
2022-12-31T08:17:38.359Z,40.40
2022-12-31T08:21:06.618Z,28.73
2022-12-31T08:24:11.932Z,28.97
2022-12-31T08:27:20.143Z,26.00
2022-12-31T08:30:23.764Z,26.75
2022-12-31T08:33:46.156Z,28.10
2022-12-31T08:36:52.433Z,26.90
2022-12-31T08:40:16.788Z,26.63
2022-12-31T08:43:45.412Z,27.58
2022-12-31T08:46:47.533Z,28.27
2022-12-31T08:49:49.821Z,32.83
2022-12-31T08:52:52.269Z,31.55
2022-12-31T08:56:00.724Z,32.00
2022-12-31T08:59:20.971Z,28.63
2022-12-31T09:02:40.916Z,28.23
2022-12-31T09:05:50.979Z,27.97
2022-12-31T09:08:56.234Z,27.85
2022-12-31T09:12:09.458Z,27.10
2022-12-31T09:15:15.603Z,26.10
2022-12-31T09:18:18.269Z,24.17
2022-12-31T09:21:20.777Z,25.38
2022-12-31T09:24:23.193Z,20.92
2022-12-31T09:27:28.793Z,18.02
2022-12-31T09:30:37.196Z,17.53
2022-12-31T09:33:52.372Z,17.23
2022-12-31T09:36:59.332Z,17.17
2022-12-31T09:40:10.528Z,15.98
2022-12-31T09:43:21.973Z,15.82
2022-12-31T09:46:30.817Z,17.30
2022-12-31T09:49:42.542Z,17.35
2022-12-31T09:52:53.593Z,16.98
2022-12-31T09:55:57.821Z,15.85
2022-12-31T09:59:05.938Z,17.08
2022-12-31T10:02:28.119Z,20.13
2022-12-31T10:05:39.325Z,27.77
2022-12-31T10:08:57.032Z,31.23
2022-12-31T10:12:11.409Z,21.55
2022-12-31T10:15:17.795Z,18.07
2022-12-31T10:18:19.899Z,18.83
2022-12-31T10:21:32.622Z,19.55
2022-12-31T10:24:34.932Z,19.05
2022-12-31T10:27:37.048Z,20.10
2022-12-31T10:30:44.024Z,18.67
2022-12-31T10:33:54.925Z,19.83
2022-12-31T10:37:03.329Z,19.77
2022-12-31T10:40:17.965Z,19.90
2022-12-31T10:43:32.468Z,20.13
2022-12-31T10:46:41.311Z,19.75
2022-12-31T10:50:01.820Z,20.83
2022-12-31T10:53:23.795Z,20.15
2022-12-31T10:56:26.251Z,21.08
2022-12-31T10:59:31.525Z,22.47
2022-12-31T11:02:40.346Z,23.02
2022-12-31T11:05:51.692Z,22.65
2022-12-31T11:09:12.455Z,24.17
2022-12-31T11:12:14.624Z,23.10
2022-12-31T11:15:16.771Z,22.13
2022-12-31T11:18:45.261Z,21.02
2022-12-31T11:21:53.578Z,19.55
2022-12-31T11:25:04.730Z,19.85
2022-12-31T11:28:12.966Z,21.07
2022-12-31T11:31:15.113Z,20.80
2022-12-31T11:34:17.351Z,20.30
2022-12-31T11:37:34.944Z,20.00
2022-12-31T11:40:42.097Z,20.65
2022-12-31T11:43:48.488Z,20.23
2022-12-31T11:47:09.765Z,18.83
2022-12-31T11:50:21.212Z,21.73
2022-12-31T11:53:30.972Z,22.67
2022-12-31T11:56:40.342Z,22.48
2022-12-31T11:59:42.518Z,22.07
2022-12-31T12:02:53.288Z,21.60
2022-12-31T12:05:57.135Z,24.23
2022-12-31T12:09:07.592Z,23.58
2022-12-31T12:12:09.964Z,25.57
2022-12-31T12:15:16.898Z,26.13
2022-12-31T12:18:25.339Z,24.63
2022-12-31T12:21:28.578Z,22.83
2022-12-31T12:24:31.060Z,23.67
2022-12-31T12:27:34.727Z,25.47
2022-12-31T12:30:38.243Z,25.38
2022-12-31T12:33:42.133Z,22.50
2022-12-31T12:36:47.967Z,20.30
2022-12-31T12:39:58.017Z,20.60
2022-12-31T12:43:01.584Z,21.83
2022-12-31T12:46:18.203Z,21.88
2022-12-31T12:49:27.819Z,19.88
2022-12-31T12:52:53.764Z,22.00
2022-12-31T12:56:04.701Z,22.17
2022-12-31T12:59:25.349Z,22.52
2022-12-31T13:02:27.767Z,24.80
2022-12-31T13:05:55.832Z,24.58
2022-12-31T13:09:07.283Z,22.13
2022-12-31T13:12:15.294Z,24.00
2022-12-31T13:15:20.709Z,24.23
2022-12-31T13:18:35.330Z,25.30
2022-12-31T13:21:44.801Z,25.58
2022-12-31T13:24:47.097Z,27.00
2022-12-31T13:27:50.804Z,25.83
2022-12-31T13:31:01.730Z,26.70
2022-12-31T13:34:16.302Z,25.63
2022-12-31T13:37:31.823Z,25.30
2022-12-31T13:40:54.346Z,26.47
2022-12-31T13:44:08.886Z,29.05
2022-12-31T13:47:29.550Z,28.77
2022-12-31T13:50:36.385Z,24.92
2022-12-31T13:53:42.303Z,23.67
2022-12-31T13:56:45.767Z,27.35
2022-12-31T13:59:50.183Z,26.10
2022-12-31T14:02:55.072Z,24.63
2022-12-31T14:06:00.148Z,24.95
2022-12-31T14:09:02.949Z,24.97
2022-12-31T14:12:08.375Z,25.50
2022-12-31T14:15:19.662Z,26.23
2022-12-31T14:18:33.104Z,24.15
2022-12-31T14:21:47.416Z,24.23
2022-12-31T14:24:51.200Z,23.50
2022-12-31T14:27:54.353Z,23.50
2022-12-31T14:31:24.097Z,24.10
2022-12-31T14:34:45.099Z,24.08
2022-12-31T14:37:47.226Z,24.43
2022-12-31T14:40:56.864Z,25.15
2022-12-31T14:44:00.320Z,26.25
2022-12-31T14:47:10.555Z,25.95
2022-12-31T14:50:14.148Z,26.73
2022-12-31T14:53:23.159Z,27.10
2022-12-31T14:56:40.243Z,31.25
2022-12-31T14:59:51.290Z,33.58
2022-12-31T15:02:55.126Z,34.88
2022-12-31T15:05:58.528Z,37.87
2022-12-31T15:09:08.437Z,36.80
2022-12-31T15:12:18.735Z,37.00
2022-12-31T15:15:33.635Z,36.78
2022-12-31T15:18:42.908Z,32.40
2022-12-31T15:21:54.195Z,31.67
2022-12-31T15:24:56.404Z,33.30
2022-12-31T15:27:59.538Z,30.70
2022-12-31T15:31:09.914Z,30.90
2022-12-31T15:34:24.885Z,30.63
2022-12-31T15:37:45.167Z,30.42
2022-12-31T15:40:51.693Z,135.02
2022-12-31T15:44:16.795Z,63.53
2022-12-31T15:47:25.022Z,43.00
2022-12-31T15:50:27.844Z,52.22
2022-12-31T15:53:39.553Z,48.17
2022-12-31T15:56:49.078Z,37.88
2022-12-31T15:59:57.546Z,34.17
2022-12-31T16:02:59.828Z,35.95
2022-12-31T16:06:03.258Z,39.13
2022-12-31T16:09:09.404Z,37.95
2022-12-31T16:12:27.850Z,41.10
2022-12-31T16:15:34.947Z,39.42
2022-12-31T16:18:41.434Z,38.15
2022-12-31T16:21:46.791Z,37.35
2022-12-31T16:25:28.905Z,38.33
2022-12-31T16:28:19.920Z,38.45
2022-12-31T16:31:22.291Z,35.38
2022-12-31T16:34:26.015Z,31.92
2022-12-31T16:37:28.201Z,34.93
2022-12-31T16:40:30.618Z,38.70
2022-12-31T16:43:36.052Z,37.53
2022-12-31T16:46:38.436Z,36.85
2022-12-31T16:49:41.454Z,34.33
2022-12-31T16:52:44.922Z,33.63
2022-12-31T16:56:08.788Z,32.80
2022-12-31T16:59:13.680Z,31.17
2022-12-31T17:02:21.317Z,31.40
2022-12-31T17:05:25.211Z,31.50
2022-12-31T17:08:50.698Z,31.75
2022-12-31T17:11:54.233Z,32.10
2022-12-31T17:15:01.135Z,33.77
2022-12-31T17:18:03.442Z,33.67
2022-12-31T17:21:07.823Z,33.92
2022-12-31T17:24:12.323Z,35.47
2022-12-31T17:27:14.802Z,36.00
2022-12-31T17:30:40.113Z,40.50
2022-12-31T17:33:42.641Z,46.45
2022-12-31T17:37:02.283Z,53.15
2022-12-31T17:40:41.098Z,71.00
2022-12-31T17:43:33.066Z,71.53
2022-12-31T17:46:39.670Z,69.70
2022-12-31T17:49:44.792Z,74.32
2022-12-31T17:52:47.629Z,80.80
2022-12-31T17:55:51.846Z,93.17
2022-12-31T17:58:54.592Z,85.05
2022-12-31T18:02:03.514Z,68.32
2022-12-31T18:05:13.685Z,57.93
2022-12-31T18:08:15.872Z,46.03
2022-12-31T18:11:19.815Z,49.67
2022-12-31T18:14:21.964Z,47.67
2022-12-31T18:17:24.091Z,46.73
2022-12-31T18:20:26.597Z,50.33
2022-12-31T18:23:31.179Z,67.63
2022-12-31T18:26:34.642Z,70.75
2022-12-31T18:29:36.848Z,66.13
2022-12-31T18:32:39.344Z,55.58
2022-12-31T18:36:17.053Z,60.22
2022-12-31T18:39:05.500Z,63.40
2022-12-31T18:42:10.929Z,61.20
2022-12-31T18:45:15.047Z,62.93
2022-12-31T18:48:17.868Z,65.18
2022-12-31T18:51:26.437Z,89.47
2022-12-31T18:54:33.449Z,94.07
2022-12-31T18:57:35.541Z,90.78
2022-12-31T19:00:38.166Z,78.68
2022-12-31T19:03:40.708Z,77.38
2022-12-31T19:06:42.949Z,115.17
2022-12-31T19:09:46.275Z,482.27
2022-12-31T19:12:49.444Z,169.38
2022-12-31T19:15:52.232Z,96.65
2022-12-31T19:18:54.369Z,84.77
2022-12-31T19:21:56.565Z,90.37
2022-12-31T19:24:58.948Z,82.53
2022-12-31T19:28:02.213Z,63.47
2022-12-31T19:31:04.436Z,71.15
2022-12-31T19:34:06.684Z,88.45
2022-12-31T19:37:12.372Z,81.93
2022-12-31T19:40:17.111Z,117.13
2022-12-31T19:43:20.656Z,119.80
2022-12-31T19:46:24.675Z,120.18
2022-12-31T19:49:26.846Z,123.85
2022-12-31T19:52:28.975Z,117.45
2022-12-31T19:55:32.743Z,114.68
2022-12-31T19:58:34.844Z,100.53
2022-12-31T20:01:37.333Z,93.80
2022-12-31T20:04:39.659Z,74.45
2022-12-31T20:07:42.482Z,91.73
2022-12-31T20:10:46.029Z,105.75
2022-12-31T20:13:48.985Z,98.70
2022-12-31T20:16:52.691Z,69.60
2022-12-31T20:19:55.395Z,68.33
2022-12-31T20:22:57.771Z,88.47
2022-12-31T20:26:00.203Z,95.95
2022-12-31T20:29:02.643Z,79.18
2022-12-31T20:32:04.899Z,111.77
2022-12-31T20:35:07.477Z,92.50
2022-12-31T20:38:09.641Z,92.25
2022-12-31T20:41:13.405Z,93.88
2022-12-31T20:44:15.517Z,72.70
2022-12-31T20:47:17.621Z,74.78
2022-12-31T20:50:20.005Z,63.95
2022-12-31T20:53:22.202Z,53.10
2022-12-31T20:56:26.102Z,60.47
2022-12-31T20:59:28.383Z,48.22
2022-12-31T21:02:41.319Z,44.67
2022-12-31T21:05:48.510Z,59.03
2022-12-31T21:08:51.020Z,59.90
2022-12-31T21:12:11.943Z,66.38
2022-12-31T21:15:14.328Z,63.17
2022-12-31T21:18:16.485Z,59.57
2022-12-31T21:21:18.925Z,54.90
2022-12-31T21:24:24.131Z,66.88
2022-12-31T21:27:26.761Z,64.85
2022-12-31T21:30:29.393Z,52.60
2022-12-31T21:33:31.568Z,40.58
2022-12-31T21:36:34.047Z,41.78
2022-12-31T21:39:36.158Z,59.50
2022-12-31T21:42:38.320Z,54.20
2022-12-31T21:45:40.672Z,60.22
2022-12-31T21:48:42.887Z,48.63
2022-12-31T21:52:03.609Z,51.70
2022-12-31T21:55:25.006Z,51.20
2022-12-31T21:58:28.291Z,42.25
2022-12-31T22:01:49.822Z,50.83
2022-12-31T22:05:16.380Z,43.20
2022-12-31T22:08:14.467Z,60.43
2022-12-31T22:11:17.478Z,73.53
2022-12-31T22:14:19.704Z,73.75
2022-12-31T22:17:21.926Z,84.35
2022-12-31T22:20:28.106Z,81.65
2022-12-31T22:23:32.008Z,81.43
2022-12-31T22:26:34.360Z,79.20
2022-12-31T22:29:36.511Z,74.43
2022-12-31T22:32:38.739Z,76.07
2022-12-31T22:35:41.006Z,75.18
2022-12-31T22:38:43.769Z,79.80
2022-12-31T22:41:46.566Z,82.47
2022-12-31T22:44:48.676Z,86.38
2022-12-31T22:47:51.291Z,93.38
2022-12-31T22:50:59.245Z,89.60
2022-12-31T22:54:01.422Z,74.13
2022-12-31T22:57:03.654Z,73.55
2022-12-31T23:00:11.038Z,71.07
2022-12-31T23:03:14.149Z,68.20
2022-12-31T23:06:16.826Z,63.17
2022-12-31T23:09:38.216Z,63.83
2022-12-31T23:12:40.466Z,61.47
2022-12-31T23:16:03.125Z,115.70
2022-12-31T23:19:24.648Z,60.70
2022-12-31T23:22:45.449Z,78.65
2022-12-31T23:25:48.879Z,86.57
2022-12-31T23:28:50.975Z,67.40
2022-12-31T23:31:53.530Z,68.93
2022-12-31T23:34:55.928Z,88.60
2022-12-31T23:37:58.136Z,95.25
2022-12-31T23:41:00.435Z,93.53
2022-12-31T23:44:02.516Z,65.90
2022-12-31T23:47:04.658Z,60.15
2022-12-31T23:50:07.609Z,64.18
2022-12-31T23:53:10.037Z,78.33
2022-12-31T23:56:20.905Z,91.13
2022-12-31T23:59:25.177Z,84.55
